Time;durP1;ratioP1;P1;durP2;ratioP2;P2;SDS_P1;SDS_P2;PMS_P1;PMS_P2;Temp;Humidity;BMP_temperature;BMP_pressure;BME280_temperature;BME280_humidity;BME280_pressure;Samples;Min_cycle;Max_cycle;Signal;HPM_P1;HPM_P2
2022/08/27 00:00:32;;;;;;;9.77;6.68;;;21.80;99.90;;;;;;5002007;28;20684;-80
2022/08/27 00:02:59;;;;;;;9.00;7.47;;;21.80;99.90;;;;;;5001894;28;20054;-81
2022/08/27 00:05:25;;;;;;;9.05;6.38;;;21.80;99.90;;;;;;5013495;28;20046;-80
2022/08/27 00:07:53;;;;;;;11.50;7.13;;;21.80;99.90;;;;;;5018081;28;20088;-80
2022/08/27 00:10:23;;;;;;;8.57;6.68;;;21.80;99.90;;;;;;5020144;28;20484;-80
2022/08/27 00:12:51;;;;;;;7.15;6.40;;;21.80;99.90;;;;;;5005821;28;20114;-79
2022/08/27 00:15:18;;;;;;;10.30;6.72;;;21.80;99.90;;;;;;5020260;28;20046;-80
2022/08/27 00:17:46;;;;;;;8.65;6.55;;;21.80;99.90;;;;;;5015026;28;20046;-80
2022/08/27 00:20:15;;;;;;;7.47;6.07;;;21.80;99.90;;;;;;5018316;28;20118;-80
2022/08/27 00:22:43;;;;;;;7.55;6.85;;;21.80;99.90;;;;;;5019130;28;20140;-80
2022/08/27 00:25:12;;;;;;;10.55;6.43;;;21.80;99.90;;;;;;5019152;28;20057;-80
2022/08/27 00:27:39;;;;;;;7.00;6.22;;;21.80;99.90;;;;;;5002493;28;20053;-81
2022/08/27 00:30:09;;;;;;;8.40;5.70;;;21.80;99.90;;;;;;5001927;28;20064;-80
2022/08/27 00:32:36;;;;;;;8.93;7.43;;;21.80;99.90;;;;;;5001715;28;20129;-80
2022/08/27 00:35:03;;;;;;;9.93;6.55;;;21.80;99.90;;;;;;5000730;28;20118;-80
2022/08/27 00:37:30;;;;;;;10.30;7.40;;;21.80;99.90;;;;;;5015318;28;20499;-80
2022/08/27 00:39:56;;;;;;;10.13;6.88;;;21.80;99.90;;;;;;5000622;28;20138;-82
2022/08/27 00:42:23;;;;;;;11.23;7.45;;;21.80;99.90;;;;;;5000934;28;20050;-82
2022/08/27 00:44:50;;;;;;;8.98;6.60;;;21.80;99.90;;;;;;5004909;28;20054;-81
2022/08/27 00:47:25;;;;;;;8.38;6.35;;;21.90;99.90;;;;;;5001662;28;20120;-81
2022/08/27 00:49:57;;;;;;;10.13;7.32;;;21.80;99.90;;;;;;5000942;28;20129;-81
2022/08/27 00:52:30;;;;;;;12.93;7.10;;;21.80;99.90;;;;;;5000767;28;20129;-79
2022/08/27 00:55:08;;;;;;;10.73;6.43;;;21.80;99.90;;;;;;5001362;28;20046;-81
2022/08/27 00:57:37;;;;;;;9.68;7.43;;;21.80;99.90;;;;;;5001786;28;20481;-81
2022/08/27 01:00:09;;;;;;;9.48;6.80;;;21.70;99.90;;;;;;5001309;28;20501;-79
2022/08/27 01:02:37;;;;;;;10.63;8.20;;;21.80;99.90;;;;;;5001661;28;20078;-81
2022/08/27 01:05:11;;;;;;;8.52;6.80;;;21.70;99.90;;;;;;5002384;28;20088;-80
2022/08/27 01:07:40;;;;;;;8.88;7.38;;;21.70;99.90;;;;;;5002025;28;20112;-82
2022/08/27 01:10:11;;;;;;;9.32;7.43;;;21.70;99.90;;;;;;5005083;28;20081;-80
2022/08/27 01:12:38;;;;;;;11.27;6.68;;;21.80;99.90;;;;;;5002732;28;20196;-83
2022/08/27 01:15:08;;;;;;;6.97;6.22;;;21.70;99.90;;;;;;5002747;28;20145;-81
2022/08/27 01:17:40;;;;;;;10.95;7.30;;;21.70;99.90;;;;;;5002035;28;20050;-82
2022/08/27 01:20:13;;;;;;;8.35;6.78;;;21.70;99.90;;;;;;5003386;28;20134;-81
2022/08/27 01:23:18;;;;;;;9.80;6.53;;;21.70;99.90;;;;;;5003549;28;20133;-80
2022/08/27 01:25:45;;;;;;;8.18;7.45;;;21.70;99.90;;;;;;4985794;28;20088;-80
2022/08/27 01:28:13;;;;;;;8.38;7.55;;;21.70;99.90;;;;;;5003273;28;20140;-82
2022/08/27 01:30:41;;;;;;;10.48;7.55;;;21.70;99.90;;;;;;5004020;28;20106;-80
2022/08/27 01:33:16;;;;;;;9.25;8.27;;;21.60;99.90;;;;;;5004292;28;20042;-81
2022/08/27 01:35:46;;;;;;;10.35;7.25;;;21.60;99.90;;;;;;5000081;28;20054;-81
2022/08/27 01:38:14;;;;;;;12.85;8.25;;;21.60;99.90;;;;;;5001318;28;20081;-81
2022/08/27 01:41:00;;;;;;;9.52;6.95;;;21.70;99.90;;;;;;4989163;28;20061;-80
2022/08/27 01:43:27;;;;;;;;;;;21.60;99.90;;;;;;5005737;28;20543;-80
2022/08/27 01:45:54;;;;;;;11.63;7.63;;;21.70;99.90;;;;;;5001312;28;19921;-81
2022/08/27 01:48:21;;;;;;;8.13;7.28;;;21.70;99.90;;;;;;5000070;28;20070;-79
2022/08/27 01:50:49;;;;;;;10.10;7.43;;;21.70;99.90;;;;;;5002489;28;20052;-80
2022/08/27 01:53:24;;;;;;;8.75;7.28;;;21.60;99.90;;;;;;5001838;28;20093;-80
2022/08/27 01:55:53;;;;;;;10.18;7.25;;;21.50;99.90;;;;;;5004763;28;20042;-80
2022/08/27 01:58:21;;;;;;;9.05;7.85;;;21.50;99.90;;;;;;5002251;28;20050;-80
2022/08/27 02:00:51;;;;;;;16.20;9.25;;;21.50;99.90;;;;;;5003196;28;20121;-80
2022/08/27 02:03:22;;;;;;;9.52;8.20;;;21.50;99.90;;;;;;4997007;28;20065;-81
2022/08/27 02:05:49;;;;;;;9.38;7.63;;;21.50;99.90;;;;;;4996938;28;20497;-81
2022/08/27 02:08:16;;;;;;;10.48;7.78;;;21.40;99.90;;;;;;5001499;28;20445;-80
2022/08/27 02:10:44;;;;;;;12.50;7.10;;;21.50;99.90;;;;;;5002438;28;20052;-81
2022/08/27 02:13:12;;;;;;;9.85;7.72;;;21.40;99.90;;;;;;5003704;28;20110;-82
2022/08/27 02:15:40;;;;;;;9.77;7.53;;;21.40;99.90;;;;;;4998620;28;20093;-80
2022/08/27 02:18:08;;;;;;;12.32;7.38;;;21.40;99.90;;;;;;4987190;28;20084;-80
2022/08/27 02:20:35;;;;;;;9.52;7.45;;;21.40;99.90;;;;;;5005709;28;20080;-79
2022/08/27 02:23:03;;;;;;;10.20;7.45;;;21.30;99.90;;;;;;5004819;28;20097;-80
2022/08/27 02:25:30;;;;;;;7.72;6.97;;;21.40;99.90;;;;;;5004200;28;20054;-81
2022/08/27 02:27:59;;;;;;;12.52;7.82;;;21.40;99.90;;;;;;5005490;28;20520;-79
2022/08/27 02:30:28;;;;;;;8.02;7.18;;;21.40;99.90;;;;;;5005067;28;20056;-80
2022/08/27 02:32:55;;;;;;;8.40;7.15;;;21.30;99.90;;;;;;5008055;28;20507;-80
2022/08/27 02:35:23;;;;;;;13.65;8.18;;;21.30;99.90;;;;;;4997993;28;20118;-80
2022/08/27 02:37:50;;;;;;;10.02;7.43;;;21.30;99.90;;;;;;4997397;28;20046;-80
2022/08/27 02:40:20;;;;;;;9.82;7.75;;;21.20;99.90;;;;;;5004153;28;20137;-80
2022/08/27 02:42:48;;;;;;;10.07;8.02;;;21.30;99.90;;;;;;5006328;28;20072;-81
2022/08/27 02:45:15;;;;;;;10.13;7.47;;;21.20;99.90;;;;;;5007205;28;20053;-80
2022/08/27 02:47:42;;;;;;;11.00;8.73;;;21.20;99.90;;;;;;5008173;28;20058;-81
2022/08/27 02:50:10;;;;;;;13.82;8.10;;;21.20;99.90;;;;;;5007227;28;20052;-80
2022/08/27 02:52:37;;;;;;;9.93;7.72;;;21.20;99.90;;;;;;5006507;28;20073;-80
2022/08/27 02:55:04;;;;;;;9.52;8.32;;;21.20;99.90;;;;;;4997065;28;20523;-81
2022/08/27 02:57:32;;;;;;;14.68;7.45;;;21.10;99.90;;;;;;4997867;28;20047;-80
2022/08/27 03:00:05;;;;;;;10.60;8.55;;;21.10;99.90;;;;;;5004474;28;20054;-80
2022/08/27 03:02:32;;;;;;;12.25;8.38;;;21.00;99.90;;;;;;5008241;28;20057;-82
2022/08/27 03:04:59;;;;;;;8.38;7.53;;;21.00;99.90;;;;;;5008585;28;20073;-80
2022/08/27 03:07:26;;;;;;;10.45;8.23;;;21.00;99.90;;;;;;4997886;28;20054;-80
2022/08/27 03:09:52;;;;;;;10.30;7.85;;;20.90;99.90;;;;;;4988779;28;20136;-82
2022/08/27 03:12:19;;;;;;;10.95;8.27;;;20.90;99.90;;;;;;4997632;28;20125;-80
2022/08/27 03:14:50;;;;;;;9.00;8.18;;;20.90;99.90;;;;;;4997628;28;20042;-80
2022/08/27 03:20:03;;;;;;;10.32;7.88;;;20.80;99.90;;;;;;5004570;28;20136;-80
2022/08/27 03:22:30;;;;;;;9.90;8.40;;;20.80;99.90;;;;;;5005267;28;20082;-80
2022/08/27 03:24:57;;;;;;;9.45;8.52;;;20.80;99.90;;;;;;5003286;28;20054;-81
2022/08/27 03:27:24;;;;;;;10.07;8.07;;;20.80;99.90;;;;;;5003232;28;20081;-80
2022/08/27 03:29:51;;;;;;;9.70;8.27;;;20.80;99.90;;;;;;5004055;28;20112;-80
2022/08/27 03:32:17;;;;;;;10.00;7.88;;;20.80;99.90;;;;;;4986171;28;20082;-81
2022/08/27 03:34:44;;;;;;;12.68;7.72;;;20.70;99.90;;;;;;5003210;28;20134;-81
2022/08/27 03:37:11;;;;;;;9.50;8.55;;;20.70;99.90;;;;;;5003426;28;20093;-80
2022/08/27 03:39:37;;;;;;;10.05;8.52;;;20.80;99.90;;;;;;4998005;28;20046;-80
2022/08/27 03:42:04;;;;;;;9.95;8.95;;;20.80;99.90;;;;;;5001301;28;20053;-80
2022/08/27 03:44:31;;;;;;;12.90;7.88;;;20.80;99.90;;;;;;5004673;28;20081;-79
2022/08/27 03:46:59;;;;;;;8.18;7.43;;;20.70;99.90;;;;;;5004968;28;20581;-82
2022/08/27 03:49:26;;;;;;;8.98;7.60;;;20.80;99.90;;;;;;5004865;28;20054;-80
2022/08/27 03:51:54;;;;;;;9.90;8.68;;;20.80;99.90;;;;;;5014475;28;20129;-82
2022/08/27 03:54:20;;;;;;;9.80;8.15;;;20.80;99.90;;;;;;5012588;28;20412;-82
2022/08/27 03:56:47;;;;;;;9.32;8.52;;;20.80;99.90;;;;;;5010227;28;20042;-80
2022/08/27 03:59:14;;;;;;;11.02;8.18;;;20.80;99.90;;;;;;5015194;28;20060;-79
2022/08/27 04:01:42;;;;;;;9.93;8.18;;;20.80;99.90;;;;;;5015905;28;20094;-81
2022/08/27 04:04:11;;;;;;;9.85;8.30;;;20.80;99.90;;;;;;5014499;28;20046;-81
2022/08/27 04:06:38;;;;;;;11.88;7.93;;;20.70;99.90;;;;;;5005133;28;20535;-80
2022/08/27 04:09:05;;;;;;;13.95;7.43;;;20.70;99.90;;;;;;5002578;28;20117;-82
2022/08/27 04:11:33;;;;;;;8.98;7.75;;;20.70;99.90;;;;;;5003664;28;20497;-82
2022/08/27 04:14:03;;;;;;;10.48;8.18;;;20.80;99.90;;;;;;5002889;28;20092;-81
2022/08/27 04:16:46;;;;;;;9.15;8.25;;;20.70;99.90;;;;;;5014557;28;20046;-80
2022/08/27 04:19:16;;;;;;;9.18;7.60;;;20.70;99.90;;;;;;5016372;28;20061;-82
2022/08/27 04:21:43;;;;;;;8.68;7.82;;;20.70;99.90;;;;;;5002040;28;20072;-80
2022/08/27 04:24:10;;;;;;;12.25;8.13;;;20.80;99.90;;;;;;5001381;28;20088;-81
2022/08/27 04:26:41;;;;;;;9.40;7.78;;;20.70;99.90;;;;;;5001640;28;20108;-79
2022/08/27 04:29:08;;;;;;;11.57;8.48;;;20.70;99.90;;;;;;5000900;28;20054;-80
2022/08/27 04:31:34;;;;;;;9.93;8.02;;;20.70;99.90;;;;;;5001210;28;20089;-81
2022/08/27 04:34:02;;;;;;;13.13;8.80;;;20.70;99.90;;;;;;5017199;28;20559;-81
2022/08/27 04:36:29;;;;;;;8.85;8.02;;;20.70;99.90;;;;;;5017637;28;20052;-82
2022/08/27 04:38:55;;;;;;;11.13;8.43;;;20.70;99.90;;;;;;5017721;28;20052;-81
2022/08/27 04:41:23;;;;;;;12.10;8.27;;;20.70;99.90;;;;;;5000173;28;20060;-80
2022/08/27 04:43:56;;;;;;;9.70;8.75;;;20.60;99.90;;;;;;5000312;28;20559;-79
2022/08/27 04:46:28;;;;;;;9.60;8.60;;;20.60;99.90;;;;;;4999397;28;20074;-80
2022/08/27 04:48:57;;;;;;;9.27;7.72;;;20.60;99.90;;;;;;4999453;28;20134;-80
2022/08/27 04:51:24;;;;;;;12.07;7.97;;;20.70;99.90;;;;;;5015091;28;20480;-83
2022/08/27 04:53:51;;;;;;;9.80;8.63;;;20.70;99.90;;;;;;5019055;28;20080;-80
2022/08/27 04:56:22;;;;;;;14.35;8.98;;;20.70;99.90;;;;;;5018676;28;20081;-79
2022/08/27 04:58:50;;;;;;;12.55;9.45;;;20.70;99.90;;;;;;4995198;28;20050;-80
2022/08/27 05:01:23;;;;;;;8.98;8.10;;;20.80;99.90;;;;;;5000998;28;20413;-80
2022/08/27 05:03:49;;;;;;;10.77;8.55;;;20.70;99.90;;;;;;5000550;28;20488;-80
2022/08/27 05:06:17;;;;;;;9.52;8.63;;;20.80;99.90;;;;;;5001409;28;20093;-80
2022/08/27 05:08:44;;;;;;;9.57;8.40;;;20.80;99.90;;;;;;5001008;28;20137;-80
2022/08/27 05:11:13;;;;;;;12.45;8.50;;;20.80;99.90;;;;;;5001723;28;20082;-80
2022/08/27 05:13:42;;;;;;;10.45;8.23;;;20.80;99.90;;;;;;5001688;28;20080;-80
2022/08/27 05:16:15;;;;;;;12.00;9.32;;;20.80;99.90;;;;;;5001482;28;20077;-80
2022/08/27 05:18:42;;;;;;;10.52;8.30;;;20.90;99.90;;;;;;4999257;28;20096;-80
2022/08/27 05:21:26;;;;;;;12.80;9.40;;;20.90;99.90;;;;;;5001069;28;20046;-80
2022/08/27 05:23:55;;;;;;;10.85;9.13;;;20.90;99.90;;;;;;4998942;28;20114;-79
2022/08/27 05:26:22;;;;;;;12.27;9.73;;;20.80;99.90;;;;;;4991343;28;20116;-80
2022/08/27 05:28:49;;;;;;;12.05;9.07;;;20.90;99.90;;;;;;4999569;28;20073;-80
2022/08/27 05:31:18;;;;;;;10.30;9.40;;;20.90;99.90;;;;;;4995057;28;20134;-79
2022/08/27 05:33:45;;;;;;;10.85;9.18;;;20.80;99.90;;;;;;5001486;28;20050;-80
2022/08/27 05:36:33;;;;;;;13.45;9.50;;;20.80;99.90;;;;;;5002905;28;20086;-81
2022/08/27 05:39:02;;;;;;;19.48;9.70;;;20.80;99.90;;;;;;5013562;28;20042;-80
2022/08/27 05:41:31;;;;;;;11.27;9.73;;;20.80;99.90;;;;;;5013619;28;20050;-81
2022/08/27 05:44:04;;;;;;;10.38;9.38;;;20.80;99.90;;;;;;5013194;28;20056;-81
2022/08/27 05:46:51;;;;;;;10.82;9.82;;;20.80;99.90;;;;;;5013341;28;20076;-81
2022/08/27 05:49:18;;;;;;;11.20;10.07;;;20.80;99.90;;;;;;5013471;28;20137;-80
2022/08/27 05:51:44;;;;;;;10.30;9.27;;;20.80;99.90;;;;;;5011629;28;20050;-79
2022/08/27 05:54:17;;;;;;;12.43;10.18;;;20.80;99.90;;;;;;5003369;28;20505;-81
2022/08/27 05:56:45;;;;;;;13.98;10.38;;;20.70;99.90;;;;;;5003910;28;20469;-79
2022/08/27 06:02:01;;;;;;;14.82;10.55;;;20.80;99.90;;;;;;5003440;28;20080;-80
2022/08/27 06:04:27;;;;;;;11.88;10.00;;;20.80;99.90;;;;;;5004173;28;20058;-79
2022/08/27 06:06:54;;;;;;;14.65;10.77;;;20.90;99.90;;;;;;5003846;28;20085;-80
2022/08/27 06:09:24;;;;;;;12.40;10.70;;;20.90;99.90;;;;;;5003853;28;20515;-80
2022/08/27 06:11:58;;;;;;;14.43;10.82;;;20.90;99.90;;;;;;5005376;28;20135;-80
2022/08/27 06:14:25;;;;;;;12.02;10.60;;;20.80;99.90;;;;;;4986486;28;20046;-80
2022/08/27 06:16:52;;;;;;;12.07;10.82;;;20.80;99.90;;;;;;5005789;28;20081;-81
2022/08/27 06:19:20;;;;;;;16.20;10.93;;;20.80;99.90;;;;;;5004316;28;20046;-80
2022/08/27 06:21:46;;;;;;;12.10;10.93;;;20.80;99.90;;;;;;5003934;28;20052;-80
2022/08/27 06:24:34;;;;;;;13.07;11.77;;;20.80;99.90;;;;;;5004313;28;20092;-80
2022/08/27 06:27:02;;;;;;;14.45;11.25;;;20.70;99.90;;;;;;5005448;28;20054;-80
2022/08/27 06:29:28;;;;;;;16.05;11.70;;;20.80;99.90;;;;;;5005674;28;20050;-78
2022/08/27 06:31:55;;;;;;;13.35;11.98;;;20.80;99.90;;;;;;5004167;28;20102;-82
2022/08/27 06:34:22;;;;;;;15.48;11.98;;;20.80;99.90;;;;;;5006924;28;20102;-79
2022/08/27 06:36:48;;;;;;;13.32;12.02;;;20.80;99.90;;;;;;5006290;28;20101;-80
2022/08/27 06:39:15;;;;;;;13.55;11.55;;;20.80;99.90;;;;;;5005941;28;20129;-81
2022/08/27 06:41:43;;;;;;;13.15;11.85;;;20.80;99.90;;;;;;5006713;28;20053;-81
2022/08/27 06:44:12;;;;;;;14.52;12.55;;;20.90;99.90;;;;;;5006269;28;20109;-81
2022/08/27 06:46:39;;;;;;;12.50;10.70;;;20.90;99.90;;;;;;5006246;28;20049;-80
2022/08/27 06:49:06;;;;;;;13.68;11.77;;;20.90;99.90;;;;;;5005420;28;20138;-80
2022/08/27 06:51:35;;;;;;;12.82;11.45;;;20.90;99.90;;;;;;5006263;28;20088;-80
2022/08/27 06:54:07;;;;;;;15.70;10.98;;;21.00;99.90;;;;;;5007642;28;20682;-79
2022/08/27 06:56:35;;;;;;;13.57;11.77;;;21.00;99.90;;;;;;5007919;28;20056;-78
2022/08/27 06:59:05;;;;;;;14.65;12.25;;;21.00;99.90;;;;;;5009620;28;20049;-82
2022/08/27 07:01:40;;;;;;;13.20;11.63;;;21.00;99.90;;;;;;5014282;28;20084;-81
2022/08/27 07:04:10;;;;;;;13.85;11.98;;;21.00;99.90;;;;;;5000826;28;20054;-81
2022/08/27 07:06:37;;;;;;;15.63;12.10;;;21.00;99.90;;;;;;5011507;28;20559;-81
2022/08/27 07:09:05;;;;;;;14.82;11.70;;;21.10;99.90;;;;;;5013528;28;20054;-81
2022/08/27 07:11:32;;;;;;;13.85;11.82;;;21.00;99.90;;;;;;5016880;28;20046;-82
2022/08/27 07:13:59;;;;;;;12.57;11.30;;;21.10;99.90;;;;;;5018899;28;20078;-80
2022/08/27 07:16:27;;;;;;;16.00;11.68;;;21.20;99.90;;;;;;5019350;28;20075;-81
2022/08/27 07:18:58;;;;;;;17.38;13.02;;;21.20;99.90;;;;;;5020840;28;20050;-81
2022/08/27 07:21:31;;;;;;;15.43;12.30;;;21.20;99.90;;;;;;5020100;28;20100;-80
2022/08/27 07:24:02;;;;;;;16.80;13.35;;;21.30;99.90;;;;;;5020391;28;20065;-79
2022/08/27 07:26:31;;;;;;;15.77;13.50;;;21.40;99.90;;;;;;5016072;28;20080;-80
2022/08/27 07:28:59;;;;;;;17.63;13.00;;;21.40;99.90;;;;;;5019402;28;20103;-81
2022/08/27 07:31:26;;;;;;;17.13;13.80;;;21.40;99.90;;;;;;5015439;28;20080;-81
2022/08/27 07:33:53;;;;;;;15.15;13.00;;;21.40;99.90;;;;;;5018323;28;20074;-80
2022/08/27 07:36:22;;;;;;;16.80;13.82;;;21.50;99.90;;;;;;5019871;28;20141;-82
2022/08/27 07:38:49;;;;;;;17.48;14.25;;;21.50;99.90;;;;;;5015468;28;20116;-80
2022/08/27 07:41:29;;;;;;;17.42;13.90;;;21.60;99.90;;;;;;5016506;28;20709;-82
2022/08/27 07:46:46;;;;;;;19.42;14.43;;;21.70;99.90;;;;;;5015620;28;20128;-79
2022/08/27 07:49:16;;;;;;;15.00;13.45;;;21.80;99.90;;;;;;5014183;28;20128;-80
2022/08/27 07:51:43;;;;;;;18.50;13.68;;;21.80;99.90;;;;;;5016990;28;20074;-79
2022/08/27 07:54:10;;;;;;;18.60;13.60;;;21.90;99.90;;;;;;5011018;28;20082;-82
2022/08/27 07:56:37;;;;;;;17.20;13.00;;;21.90;99.90;;;;;;5013776;28;20081;-80
2022/08/27 07:59:04;;;;;;;18.42;14.40;;;21.90;99.90;;;;;;5007415;28;20640;-80
2022/08/27 08:01:30;;;;;;;15.18;12.80;;;22.00;99.90;;;;;;5011260;28;20050;-80
2022/08/27 08:03:57;;;;;;;18.13;12.77;;;22.20;99.90;;;;;;5013777;28;20049;-79
2022/08/27 08:06:24;;;;;;;18.85;12.50;;;22.40;99.90;;;;;;5010937;28;20413;-81
2022/08/27 08:08:51;;;;;;;21.58;13.18;;;22.40;99.90;;;;;;5009593;28;20082;-79
2022/08/27 08:11:19;;;;;;;19.90;13.45;;;22.50;99.90;;;;;;5014991;28;20050;-80
2022/08/27 08:13:46;;;;;;;17.23;13.50;;;22.50;99.90;;;;;;4999450;28;20121;-81
2022/08/27 08:16:14;;;;;;;17.05;13.00;;;22.50;99.90;;;;;;5008292;28;20066;-82
2022/08/27 08:18:40;;;;;;;17.10;13.80;;;22.50;99.90;;;;;;5013681;28;20061;-80
2022/08/27 08:21:11;;;;;;;20.13;14.38;;;22.50;99.90;;;;;;5015163;28;20556;-80
2022/08/27 08:23:39;;;;;;;17.85;13.20;;;22.50;99.90;;;;;;5009124;28;20049;-82
2022/08/27 08:26:07;;;;;;;22.58;14.77;;;22.50;99.90;;;;;;5018035;28;20046;-80
2022/08/27 08:28:34;;;;;;;19.17;14.35;;;22.60;99.90;;;;;;5010394;28;20076;-81
2022/08/27 08:31:01;;;;;;;17.92;13.82;;;22.60;99.90;;;;;;5012960;28;20053;-81
2022/08/27 08:33:30;;;;;;;18.17;13.85;;;22.60;99.90;;;;;;5011003;28;20065;-80
2022/08/27 08:36:11;;;;;;;17.80;13.63;;;22.70;99.90;;;;;;5014850;28;20077;-82
2022/08/27 08:38:39;;;;;;;20.42;14.60;;;22.60;99.90;;;;;;5011375;28;20085;-82
2022/08/27 08:41:22;;;;;;;20.10;14.93;;;22.70;99.90;;;;;;5009083;28;20053;-82
2022/08/27 08:43:50;;;;;;;21.35;15.27;;;22.50;99.90;;;;;;5008574;28;20047;-81
2022/08/27 08:46:45;;;;;;;19.70;15.02;;;22.60;99.90;;;;;;5007979;28;20062;-83
2022/08/27 08:49:33;;;;;;;22.25;15.88;;;22.60;99.90;;;;;;5009308;28;20046;-81
2022/08/27 08:52:12;;;;;;;19.13;14.43;;;22.50;99.90;;;;;;5010373;28;20077;-83
2022/08/27 08:55:07;;;;;;;20.25;15.85;;;22.50;99.90;;;;;;5010100;28;20081;-81
2022/08/27 08:58:07;;;;;;;20.02;15.65;;;22.40;99.90;;;;;;5012278;28;20046;-82
2022/08/27 09:00:35;;;;;;;;;;;22.50;99.90;;;;;;4982330;28;20049;-80
2022/08/27 09:03:02;;;;;;;18.20;13.93;;;22.50;99.90;;;;;;5011603;28;19960;-81
2022/08/27 09:05:29;;;;;;;21.10;15.45;;;22.50;99.90;;;;;;5013067;28;20137;-82
2022/08/27 09:08:13;;;;;;;18.38;14.00;;;22.50;99.90;;;;;;5012907;28;20105;-82
2022/08/27 09:11:18;;;;;;;22.50;15.45;;;22.50;99.90;;;;;;5015628;28;20038;-83
2022/08/27 09:13:54;;;;;;;20.92;17.15;;;22.60;99.90;;;;;;5014159;28;20070;-81
2022/08/27 09:16:21;;;;;;;23.33;16.08;;;22.60;99.90;;;;;;5008466;28;20401;-81
2022/08/27 09:18:49;;;;;;;23.48;17.92;;;22.70;99.90;;;;;;5012709;28;20045;-82
2022/08/27 09:21:40;;;;;;;23.38;16.55;;;22.70;99.90;;;;;;5009333;28;20046;-81
2022/08/27 09:24:22;;;;;;;22.33;16.13;;;22.80;99.90;;;;;;5014074;28;20081;-83
2022/08/27 09:26:49;;;;;;;20.27;16.98;;;22.90;99.90;;;;;;5007906;28;20078;-82
2022/08/27 09:29:20;;;;;;;24.40;16.75;;;22.90;99.90;;;;;;5011879;28;20447;-81
2022/08/27 09:32:05;;;;;;;24.10;17.55;;;22.90;99.90;;;;;;5018350;28;20212;-81
2022/08/27 09:34:41;;;;;;;28.52;18.15;;;23.10;99.90;;;;;;5011256;28;20116;-80
2022/08/27 09:37:30;;;;;;;22.45;16.38;;;23.20;99.90;;;;;;5006687;28;20042;-81
2022/08/27 09:40:11;;;;;;;22.15;14.77;;;23.20;99.90;;;;;;5012193;28;20074;-82
2022/08/27 09:42:54;;;;;;;22.63;15.27;;;23.40;99.90;;;;;;5006445;28;20106;-81
2022/08/27 09:45:25;;;;;;;26.45;16.48;;;23.50;99.90;;;;;;5014099;28;20286;-82
2022/08/27 09:48:06;;;;;;;;;;;23.60;99.90;;;;;;5000137;28;20133;-83
2022/08/27 09:50:48;;;;;;;20.70;15.80;;;23.60;99.90;;;;;;5013071;28;19921;-83
2022/08/27 09:53:29;;;;;;;23.67;15.95;;;23.70;99.90;;;;;;5016054;28;20134;-81
2022/08/27 09:55:59;;;;;;;21.35;15.57;;;23.80;99.90;;;;;;5012503;28;20069;-83
2022/08/27 09:58:29;;;;;;;;;;;23.80;99.90;;;;;;5011225;28;20050;-82
2022/08/27 10:01:05;;;;;;;24.85;16.45;;;24.00;99.90;;;;;;5010799;28;19926;-79
2022/08/27 10:03:32;;;;;;;26.35;16.40;;;24.10;99.90;;;;;;5007046;28;20050;-80
2022/08/27 10:05:59;;;;;;;22.90;16.02;;;24.00;99.90;;;;;;5011314;28;20042;-82
2022/08/27 10:08:38;;;;;;;21.60;17.52;;;24.10;99.90;;;;;;5009204;28;20106;-81
2022/08/27 10:11:08;;;;;;;20.33;15.65;;;24.10;99.90;;;;;;5001199;28;20085;-82
2022/08/27 10:13:45;;;;;;;23.13;14.68;;;24.20;99.90;;;;;;5008038;28;20052;-83
2022/08/27 10:16:51;;;;;;;19.10;15.23;;;24.20;99.90;;;;;;5004197;28;20100;-82
2022/08/27 10:19:36;;;;;;;21.58;15.65;;;24.30;99.90;;;;;;5005493;28;20141;-81
2022/08/27 10:22:10;;;;;;;20.15;14.85;;;24.40;99.90;;;;;;5015447;28;20121;-81
2022/08/27 10:24:50;;;;;;;21.60;15.63;;;24.40;99.90;;;;;;5017138;28;20054;-80
2022/08/27 10:27:28;;;;;;;15.90;12.98;;;24.40;99.90;;;;;;5015264;28;20046;-79
2022/08/27 10:30:09;;;;;;;22.05;15.85;;;24.60;99.90;;;;;;5014774;28;20060;-82
2022/08/27 10:33:09;;;;;;;20.23;15.75;;;24.70;99.90;;;;;;5014628;28;20041;-81
2022/08/27 10:35:40;;;;;;;;;;;24.70;99.90;;;;;;5011503;28;20097;-82
2022/08/27 10:38:44;;;;;;;19.38;14.23;;;24.70;99.90;;;;;;5010770;28;20349;-82
2022/08/27 10:41:27;;;;;;;19.17;14.20;;;24.70;99.90;;;;;;5012735;28;20052;-81
2022/08/27 10:44:23;;;;;;;21.50;14.90;;;24.70;99.90;;;;;;5011944;28;20500;-82
2022/08/27 10:47:28;;;;;;;22.83;15.18;;;24.70;99.90;;;;;;5011224;28;20101;-82
2022/08/27 10:50:02;;;;;;;20.55;13.93;;;24.70;99.90;;;;;;5019439;28;20066;-81
2022/08/27 10:52:36;;;;;;;19.92;13.18;;;24.60;99.90;;;;;;5017773;28;20467;-82
2022/08/27 10:55:26;;;;;;;21.95;14.75;;;24.70;99.90;;;;;;5016672;28;20214;-81
2022/08/27 10:58:05;;;;;;;16.38;13.45;;;24.70;99.90;;;;;;5016123;28;20045;-80
2022/08/27 11:00:56;;;;;;;16.17;12.50;;;24.70;99.90;;;;;;5006835;28;20050;-82
2022/08/27 11:03:33;;;;;;;14.45;11.82;;;24.70;99.90;;;;;;5016061;28;20110;-82
2022/08/27 11:06:05;;;;;;;15.90;11.43;;;24.60;99.90;;;;;;5018858;28;20050;-81
2022/08/27 11:08:41;;;;;;;17.30;11.63;;;24.50;99.90;;;;;;5015690;28;20110;-82
2022/08/27 11:11:23;;;;;;;14.55;11.18;;;24.50;99.90;;;;;;5016349;28;20060;-83
2022/08/27 11:14:27;;;;;;;16.00;11.77;;;24.60;99.90;;;;;;5017270;28;20050;-81
2022/08/27 11:17:00;;;;;;;19.25;10.77;;;24.70;99.90;;;;;;5013922;28;20104;-82
2022/08/27 11:19:41;;;;;;;14.52;10.38;;;24.80;99.90;;;;;;5013288;28;20528;-82
2022/08/27 11:22:15;;;;;;;12.07;9.13;;;24.90;99.90;;;;;;5015296;28;20137;-82
2022/08/27 11:24:55;;;;;;;13.45;10.60;;;25.10;99.90;;;;;;4998415;28;20049;-82
2022/08/27 11:27:27;;;;;;;13.63;10.00;;;25.10;99.90;;;;;;5006073;28;20053;-82
2022/08/27 11:29:58;;;;;;;13.27;10.60;;;25.40;99.90;;;;;;5005758;28;20138;-82
2022/08/27 11:32:34;;;;;;;13.82;10.07;;;25.50;99.90;;;;;;5012434;28;20505;-82
2022/08/27 11:35:11;;;;;;;13.55;9.48;;;25.60;99.90;;;;;;5019136;28;20081;-81
2022/08/27 11:37:44;;;;;;;14.80;10.70;;;25.80;99.90;;;;;;5019205;28;20133;-81
2022/08/27 11:40:58;;;;;;;12.73;10.30;;;25.70;99.90;;;;;;5016912;28;20129;-82
2022/08/27 11:43:28;;;;;;;11.93;9.10;;;25.80;99.90;;;;;;5010619;28;20077;-82
2022/08/27 11:46:01;;;;;;;15.55;10.45;;;25.80;99.90;;;;;;5011421;28;20077;-82
2022/08/27 11:48:40;;;;;;;13.07;10.00;;;25.80;99.90;;;;;;5010149;28;20077;-82
2022/08/27 11:51:27;;;;;;;15.55;9.20;;;25.80;99.90;;;;;;5019633;28;20085;-82
2022/08/27 11:53:57;;;;;;;11.52;9.55;;;26.00;99.90;;;;;;5010544;28;20072;-79
2022/08/27 11:56:29;;;;;;;9.85;8.68;;;26.00;99.90;;;;;;5010271;28;20042;-80
2022/08/27 11:59:10;;;;;;;13.40;8.85;;;26.20;99.90;;;;;;4992833;28;20106;-80
2022/08/27 12:01:38;;;;;;;10.80;9.05;;;26.30;99.90;;;;;;5018803;28;20074;-83
2022/08/27 12:04:17;;;;;;;10.68;8.88;;;26.50;99.90;;;;;;5010037;28;20080;-82
2022/08/27 12:06:51;;;;;;;10.18;8.77;;;26.50;99.90;;;;;;5007025;28;20133;-82
2022/08/27 12:09:22;;;;;;;13.40;8.70;;;26.60;99.90;;;;;;5020720;28;20507;-82
2022/08/27 12:12:15;;;;;;;10.02;8.70;;;26.60;99.90;;;;;;5021310;28;20054;-81
2022/08/27 12:14:47;;;;;;;12.73;8.57;;;26.50;99.90;;;;;;5019682;28;20049;-83
2022/08/27 12:17:17;;;;;;;9.40;7.72;;;26.40;99.90;;;;;;5007133;28;20046;-82
2022/08/27 12:20:13;;;;;;;11.52;9.00;;;26.30;99.90;;;;;;5006985;28;20078;-81
2022/08/27 12:25:31;;;;;;;12.90;9.52;;;26.10;99.90;;;;;;5020100;28;20137;-82
2022/08/27 12:28:04;;;;;;;12.55;9.82;;;25.90;99.90;;;;;;5019730;28;20073;-82
2022/08/27 12:30:35;;;;;;;12.73;9.30;;;25.80;99.90;;;;;;5010315;28;20455;-82
2022/08/27 12:33:13;;;;;;;10.15;9.10;;;25.80;99.90;;;;;;5021933;28;20057;-83
2022/08/27 12:35:50;;;;;;;10.30;8.48;;;25.80;99.90;;;;;;5016579;28;20054;-82
2022/08/27 12:38:33;;;;;;;11.10;8.13;;;25.80;99.90;;;;;;5000011;28;20053;-82
2022/08/27 12:41:07;;;;;;;13.25;7.70;;;25.70;99.90;;;;;;5005085;28;20578;-82
2022/08/27 12:43:37;;;;;;;8.18;7.10;;;25.70;99.90;;;;;;5005274;28;20133;-82
2022/08/27 12:46:10;;;;;;;9.15;7.72;;;25.80;99.90;;;;;;5023899;28;20133;-81
2022/08/27 12:49:07;;;;;;;10.05;8.00;;;25.80;99.90;;;;;;5022688;28;20116;-82
2022/08/27 12:51:54;;;;;;;9.20;7.35;;;25.80;99.90;;;;;;5022353;28;20125;-82
2022/08/27 12:54:36;;;;;;;10.10;7.88;;;25.80;99.90;;;;;;5009080;28;20378;-80
2022/08/27 12:57:24;;;;;;;11.35;8.15;;;25.70;99.90;;;;;;5019465;28;20049;-82
2022/08/27 13:00:11;;;;;;;10.65;8.30;;;25.60;99.90;;;;;;5022081;28;20046;-82
2022/08/27 13:02:56;;;;;;;11.85;7.82;;;25.40;99.90;;;;;;5005005;28;20126;-83
2022/08/27 13:05:24;;;;;;;8.65;7.43;;;25.30;99.90;;;;;;5022182;28;20069;-85
2022/08/27 13:07:52;;;;;;;11.43;8.30;;;25.10;99.90;;;;;;5021202;28;20050;-82
2022/08/27 13:10:30;;;;;;;10.40;8.60;;;25.10;99.90;;;;;;5001279;28;20069;-81
2022/08/27 13:13:10;;;;;;;10.52;9.40;;;25.10;99.90;;;;;;5006414;28;20054;-83